createdAt,value
2023-05-14T00:00:04.319Z,97600.63
2023-05-14T00:02:31.109Z,97598.31
2023-05-14T00:04:57.763Z,97595.66
2023-05-14T00:07:30.887Z,97592.63
2023-05-14T00:09:58.369Z,97598.22
2023-05-14T00:12:26.481Z,97598.59
2023-05-14T00:14:53.814Z,97596.22
2023-05-14T00:17:20.430Z,97597.75
2023-05-14T00:19:47.224Z,97596.16
2023-05-14T00:22:14.011Z,97590.38
2023-05-14T00:24:40.664Z,97588.88
2023-05-14T00:27:07.748Z,97588.09
2023-05-14T00:29:34.471Z,97582.19
2023-05-14T00:32:01.035Z,97597.75
2023-05-14T00:34:27.601Z,97603.16
2023-05-14T00:36:54.269Z,97592.09
2023-05-14T00:39:20.911Z,97594.81
2023-05-14T00:41:47.458Z,97601.03
2023-05-14T00:44:14.204Z,97595.44
2023-05-14T00:46:41.385Z,97600.88
2023-05-14T00:49:08.354Z,97603.56
2023-05-14T00:51:34.944Z,97600.00
2023-05-14T00:54:01.626Z,97600.00
2023-05-14T00:56:28.408Z,97595.72
2023-05-14T00:58:54.944Z,97596.47
2023-05-14T01:01:21.809Z,97587.78
2023-05-14T01:03:49.086Z,97588.19
2023-05-14T01:06:21.989Z,97590.88
2023-05-14T01:09:16.231Z,97582.31
2023-05-14T01:11:52.910Z,97577.16
2023-05-14T01:14:38.610Z,97572.09
2023-05-14T01:17:06.798Z,97558.75
2023-05-14T01:19:44.314Z,97565.78
2023-05-14T01:22:11.892Z,97561.75
2023-05-14T01:24:38.933Z,97559.72
2023-05-14T01:27:29.970Z,97552.69
2023-05-14T01:30:08.268Z,97555.41
2023-05-14T01:32:36.498Z,97560.06
2023-05-14T01:35:03.967Z,97556.13
2023-05-14T01:37:32.548Z,97553.78
2023-05-14T01:40:00.369Z,97552.94
2023-05-14T01:42:31.151Z,97552.16
2023-05-14T01:44:58.116Z,97550.53
2023-05-14T01:47:24.768Z,97553.22
2023-05-14T01:49:51.367Z,97556.72
2023-05-14T01:52:21.198Z,97558.28
2023-05-14T01:54:48.762Z,97568.41
2023-05-14T01:57:15.428Z,97559.06
2023-05-14T01:59:42.182Z,97551.13
2023-05-14T02:02:08.759Z,97551.06
2023-05-14T02:04:35.548Z,97557.31
2023-05-14T02:07:02.126Z,97555.72
2023-05-14T02:09:28.821Z,97547.91
2023-05-14T02:11:55.669Z,97547.84
2023-05-14T02:14:22.243Z,97541.59
2023-05-14T02:16:49.050Z,97541.59
2023-05-14T02:19:15.756Z,97535.28
2023-05-14T02:21:42.342Z,97531.00
2023-05-14T02:24:08.900Z,97525.03
2023-05-14T02:26:35.503Z,97536.69
2023-05-14T02:29:02.071Z,97532.41
2023-05-14T02:31:28.718Z,97540.06
2023-05-14T02:33:55.485Z,97543.84
2023-05-14T02:36:22.039Z,97538.31
2023-05-14T02:38:48.607Z,97536.00
2023-05-14T02:41:15.139Z,97533.59
2023-05-14T02:43:41.726Z,97537.53
2023-05-14T02:46:08.296Z,97537.38
2023-05-14T02:48:37.408Z,97530.31
2023-05-14T02:51:04.029Z,97531.09
2023-05-14T02:53:31.796Z,97522.50
2023-05-14T02:55:58.377Z,97527.97
2023-05-14T02:58:28.523Z,97517.84
2023-05-14T03:00:55.506Z,97520.94
2023-05-14T03:03:22.703Z,97525.72
2023-05-14T03:05:49.748Z,97526.50
2023-05-14T03:08:16.326Z,97523.84
2023-05-14T03:10:42.897Z,97520.25
2023-05-14T03:13:09.456Z,97519.56
2023-05-14T03:15:36.197Z,97525.72
2023-05-14T03:18:02.795Z,97525.09
2023-05-14T03:20:29.430Z,97511.03
2023-05-14T03:22:56.302Z,97512.56
2023-05-14T03:25:22.980Z,97515.81
2023-05-14T03:27:49.734Z,97518.81
2023-05-14T03:30:16.397Z,97514.53
2023-05-14T03:32:43.139Z,97517.72
2023-05-14T03:35:09.837Z,97514.91
2023-05-14T03:37:38.689Z,97512.50
2023-05-14T03:40:06.300Z,97508.59
2023-05-14T03:42:33.564Z,97512.88
2023-05-14T03:45:00.112Z,97508.59
2023-05-14T03:47:26.741Z,97502.25
2023-05-14T03:49:53.900Z,97506.13
2023-05-14T03:52:20.486Z,97496.91
2023-05-14T03:54:47.052Z,97492.16
2023-05-14T03:57:13.609Z,97489.00
2023-05-14T03:59:40.157Z,97497.47
2023-05-14T04:02:07.744Z,97492.34
2023-05-14T04:04:34.416Z,97494.38
2023-05-14T04:07:01.042Z,97489.00
2023-05-14T04:09:27.856Z,97487.59
2023-05-14T04:11:54.408Z,97489.00
2023-05-14T04:14:21.017Z,97495.94
2023-05-14T04:16:47.899Z,97485.69
2023-05-14T04:19:14.556Z,97489.97
2023-05-14T04:21:41.127Z,97484.63
2023-05-14T04:24:08.322Z,97479.38
2023-05-14T04:26:37.846Z,97491.03
2023-05-14T04:29:04.391Z,97472.34
2023-05-14T04:31:31.859Z,97464.47
2023-05-14T04:33:58.488Z,97464.66
2023-05-14T04:36:25.070Z,97460.53
2023-05-14T04:38:51.825Z,97457.66
2023-05-14T04:41:18.469Z,97448.69
2023-05-14T04:43:45.032Z,97445.19
2023-05-14T04:46:11.698Z,97449.13
2023-05-14T04:48:38.461Z,97453.47
2023-05-14T04:51:07.116Z,97458.97
2023-05-14T04:53:34.206Z,97462.31
2023-05-14T04:56:00.770Z,97456.56
2023-05-14T04:58:29.404Z,97452.78
2023-05-14T05:00:55.980Z,97453.66
2023-05-14T05:03:22.604Z,97454.19
2023-05-14T05:05:49.316Z,97451.69
2023-05-14T05:08:16.124Z,97457.00
2023-05-14T05:10:42.715Z,97465.97
2023-05-14T05:13:09.373Z,97474.34
2023-05-14T05:15:35.954Z,97464.00
2023-05-14T05:18:02.799Z,97464.81
2023-05-14T05:20:29.430Z,97456.06
2023-05-14T05:22:56.075Z,97452.03
2023-05-14T05:25:22.642Z,97452.66
2023-05-14T05:27:49.257Z,97452.13
2023-05-14T05:30:15.858Z,97451.66
2023-05-14T05:32:44.088Z,97459.28
2023-05-14T05:35:10.947Z,97455.53
2023-05-14T05:37:37.528Z,97457.75
2023-05-14T05:40:05.423Z,97452.16
2023-05-14T05:42:32.182Z,97457.50
2023-05-14T05:44:58.770Z,97456.78
2023-05-14T05:47:25.422Z,97453.22
2023-05-14T05:49:52.401Z,97453.97
2023-05-14T05:52:18.972Z,97449.19
2023-05-14T05:54:46.052Z,97441.38
2023-05-14T05:57:12.616Z,97449.84
2023-05-14T05:59:39.514Z,97438.97
2023-05-14T06:02:06.981Z,97446.50
2023-05-14T06:04:33.636Z,97443.06
2023-05-14T06:07:00.186Z,97446.38
2023-05-14T06:09:26.729Z,97441.19
2023-05-14T06:11:53.328Z,97439.56
2023-05-14T06:14:19.859Z,97443.66
2023-05-14T06:16:46.664Z,97442.41
2023-05-14T06:19:13.777Z,97446.41
2023-05-14T06:21:40.839Z,97439.59
2023-05-14T06:24:07.577Z,97443.41
2023-05-14T06:26:34.157Z,97446.69
2023-05-14T06:29:01.313Z,97449.38
2023-05-14T06:31:27.911Z,97449.31
2023-05-14T06:33:54.477Z,97450.19
2023-05-14T06:36:21.053Z,97452.25
2023-05-14T06:38:48.760Z,97450.06
2023-05-14T06:41:15.352Z,97452.66
2023-05-14T06:43:42.005Z,97445.88
2023-05-14T06:46:08.762Z,97446.91
2023-05-14T06:48:35.498Z,97448.44
2023-05-14T06:51:03.406Z,97444.88
2023-05-14T06:53:29.983Z,97446.66
2023-05-14T06:55:56.822Z,97453.63
2023-05-14T06:58:23.446Z,97456.59
2023-05-14T07:00:49.994Z,97460.00
2023-05-14T07:03:16.790Z,97459.66
2023-05-14T07:05:45.283Z,97462.41
2023-05-14T07:08:12.096Z,97454.13
2023-05-14T07:10:39.298Z,97465.03
2023-05-14T07:13:06.378Z,97463.78
2023-05-14T07:15:32.968Z,97469.56
2023-05-14T07:17:59.529Z,97460.31
2023-05-14T07:20:26.517Z,97451.81
2023-05-14T07:22:53.284Z,97453.03
2023-05-14T07:25:19.882Z,97454.69
2023-05-14T07:27:46.411Z,97452.03
2023-05-14T07:30:13.467Z,97446.44
2023-05-14T07:32:40.219Z,97442.56
2023-05-14T07:35:07.250Z,97434.31
2023-05-14T07:37:34.076Z,97432.50
2023-05-14T07:40:00.742Z,97434.81
2023-05-14T07:42:35.886Z,97437.13
2023-05-14T07:45:04.280Z,97446.28
2023-05-14T07:47:31.048Z,97446.84
2023-05-14T07:49:57.952Z,97430.91
2023-05-14T07:52:24.887Z,97432.31
2023-05-14T07:54:52.184Z,97439.16
2023-05-14T07:57:19.649Z,97437.69
2023-05-14T07:59:46.628Z,97429.19
2023-05-14T08:02:14.228Z,97425.59
2023-05-14T08:04:40.863Z,97438.34
2023-05-14T08:07:08.714Z,97430.34
2023-05-14T08:09:35.413Z,97432.09
2023-05-14T08:12:02.319Z,97430.31
2023-05-14T08:14:29.049Z,97411.56
2023-05-14T08:16:55.901Z,97412.41
2023-05-14T08:19:23.403Z,97400.91
2023-05-14T08:21:50.464Z,97397.22
2023-05-14T08:24:17.582Z,97396.84
2023-05-14T08:26:44.138Z,97383.31
2023-05-14T08:29:11.923Z,97379.34
2023-05-14T08:31:39.451Z,97385.84
2023-05-14T08:34:06.531Z,97377.97
2023-05-14T08:36:33.202Z,97378.97
2023-05-14T08:38:59.784Z,97379.94
2023-05-14T08:41:26.796Z,97383.59
2023-05-14T08:44:12.984Z,97370.47
2023-05-14T08:46:40.836Z,97368.34
2023-05-14T08:49:43.104Z,97373.22
2023-05-14T08:52:10.280Z,97365.66
2023-05-14T08:54:37.123Z,97367.59
2023-05-14T08:57:05.283Z,97372.06
2023-05-14T08:59:31.986Z,97376.81
2023-05-14T09:02:02.016Z,97362.66
2023-05-14T09:04:29.835Z,97363.69
2023-05-14T09:06:56.643Z,97367.34
2023-05-14T09:09:23.615Z,97354.78
2023-05-14T09:11:51.663Z,97360.31
2023-05-14T09:14:19.184Z,97349.84
2023-05-14T09:16:48.550Z,97350.19
2023-05-14T09:19:16.016Z,97345.25
2023-05-14T09:21:45.491Z,97339.25
2023-05-14T09:24:24.076Z,97343.28
2023-05-14T09:26:56.405Z,97340.81
2023-05-14T09:29:28.384Z,97344.66
2023-05-14T09:31:56.240Z,97334.06
2023-05-14T09:34:27.817Z,97334.59
2023-05-14T09:36:59.400Z,97345.81
2023-05-14T09:39:26.775Z,97347.13
2023-05-14T09:41:53.946Z,97348.34
2023-05-14T09:44:21.248Z,97338.97
2023-05-14T09:46:49.122Z,97337.13
2023-05-14T09:49:16.225Z,97341.63
2023-05-14T09:51:43.055Z,97333.28
2023-05-14T09:54:10.241Z,97324.94
2023-05-14T09:56:37.857Z,97328.47
2023-05-14T09:59:04.582Z,97322.72
2023-05-14T10:01:33.429Z,97322.75
2023-05-14T10:04:00.772Z,97316.44
2023-05-14T10:06:30.680Z,97320.09
2023-05-14T10:09:01.552Z,97318.63
2023-05-14T10:11:32.548Z,97319.66
2023-05-14T10:14:09.157Z,97306.31
2023-05-14T10:16:40.587Z,97312.19
2023-05-14T10:19:12.034Z,97314.34
2023-05-14T10:21:41.242Z,97310.75
2023-05-14T10:24:09.873Z,97314.38
2023-05-14T10:26:39.585Z,97310.97
2023-05-14T10:29:07.007Z,97312.00
2023-05-14T10:31:47.825Z,97310.75
2023-05-14T10:34:41.116Z,97306.94
2023-05-14T10:37:10.741Z,97307.38
2023-05-14T10:39:48.641Z,97300.06
2023-05-14T10:42:21.590Z,97296.81
2023-05-14T10:45:02.633Z,97295.16
2023-05-14T10:47:29.945Z,97301.94
2023-05-14T10:49:59.764Z,97295.56
2023-05-14T10:52:26.642Z,97292.13
2023-05-14T10:54:56.055Z,97296.28
2023-05-14T10:57:26.451Z,97287.88
2023-05-14T10:59:58.802Z,97277.00
2023-05-14T11:02:32.672Z,97280.41
2023-05-14T11:05:04.450Z,97272.84
2023-05-14T11:07:42.458Z,97276.63
2023-05-14T11:10:13.116Z,97273.53
2023-05-14T11:12:42.256Z,97273.94
2023-05-14T11:15:11.011Z,97269.44
2023-05-14T11:17:40.461Z,97265.81
2023-05-14T11:20:08.183Z,97262.72
2023-05-14T11:22:36.162Z,97262.19
2023-05-14T11:25:03.311Z,97256.19
2023-05-14T11:27:31.224Z,97253.81
2023-05-14T11:29:58.514Z,97256.84
2023-05-14T11:32:26.161Z,97252.94
2023-05-14T11:34:53.055Z,97245.50
2023-05-14T11:37:20.425Z,97243.66
2023-05-14T11:39:52.327Z,97253.19
2023-05-14T11:42:21.388Z,97253.31
2023-05-14T11:44:49.863Z,97245.25
2023-05-14T11:47:18.778Z,97242.66
2023-05-14T11:49:46.177Z,97239.91
2023-05-14T11:52:15.032Z,97240.28
2023-05-14T11:54:43.232Z,97235.06
2023-05-14T11:57:16.408Z,97235.91
2023-05-14T11:59:43.560Z,97228.94
2023-05-14T12:02:15.371Z,97224.56
2023-05-14T12:04:42.884Z,97228.06
2023-05-14T12:07:11.868Z,97223.28
2023-05-14T12:09:51.857Z,97222.34
2023-05-14T12:12:21.481Z,97219.09
2023-05-14T12:14:49.518Z,97218.03
2023-05-14T12:17:19.135Z,97223.88
2023-05-14T12:19:47.648Z,97211.78
2023-05-14T12:22:18.907Z,97213.84
2023-05-14T12:24:59.417Z,97200.72
2023-05-14T12:27:28.459Z,97201.56
2023-05-14T12:32:39.465Z,97195.44
2023-05-14T12:35:06.531Z,97195.41
2023-05-14T12:37:33.482Z,97190.28
2023-05-14T12:40:00.252Z,97183.47
2023-05-14T12:42:27.077Z,97181.63
2023-05-14T12:44:53.631Z,97184.03
2023-05-14T12:47:20.645Z,97182.50
2023-05-14T12:49:47.425Z,97179.28
2023-05-14T12:54:43.664Z,97171.16
2023-05-14T12:57:10.446Z,97167.19
2023-05-14T12:59:37.340Z,97161.34
2023-05-14T13:02:04.951Z,97160.88
2023-05-14T13:04:31.591Z,97155.06
2023-05-14T13:06:58.275Z,97151.53
2023-05-14T13:09:25.309Z,97152.38
2023-05-14T13:11:52.335Z,97151.66
2023-05-14T13:14:20.157Z,97141.84
2023-05-14T13:16:46.948Z,97147.25
2023-05-14T13:19:13.867Z,97127.78
2023-05-14T13:21:40.486Z,97144.47
2023-05-14T13:24:07.537Z,97136.44
2023-05-14T13:26:35.167Z,97135.50
2023-05-14T13:29:02.187Z,97140.81
2023-05-14T13:31:29.132Z,97137.66
2023-05-14T13:33:59.109Z,97132.38
2023-05-14T13:36:25.747Z,97144.97
2023-05-14T13:38:52.488Z,97130.38
2023-05-14T13:41:20.188Z,97130.59
2023-05-14T13:43:46.710Z,97142.09
2023-05-14T13:46:13.359Z,97129.09
2023-05-14T13:48:40.162Z,97124.53
2023-05-14T13:51:07.094Z,97127.75
2023-05-14T13:53:33.692Z,97122.91
2023-05-14T13:56:02.001Z,97120.91
2023-05-14T13:58:28.648Z,97121.66
2023-05-14T14:00:55.281Z,97121.66
2023-05-14T14:03:21.938Z,97120.69
2023-05-14T14:05:48.568Z,97115.72
2023-05-14T14:08:23.427Z,97119.75
2023-05-14T14:10:51.162Z,97116.50
2023-05-14T14:13:17.780Z,97117.06
2023-05-14T14:15:44.614Z,97122.13
2023-05-14T14:18:11.487Z,97112.47
2023-05-14T14:20:38.481Z,97108.47
2023-05-14T14:23:05.113Z,97103.31
2023-05-14T14:25:31.706Z,97100.81
2023-05-14T14:27:58.420Z,97098.69
2023-05-14T14:30:25.061Z,97106.47
2023-05-14T14:32:51.658Z,97091.66
2023-05-14T14:35:19.738Z,97094.03
2023-05-14T14:37:50.760Z,97089.53
2023-05-14T14:40:17.466Z,97094.31
2023-05-14T14:42:44.507Z,97090.59
2023-05-14T14:45:12.079Z,97088.69
2023-05-14T14:47:38.959Z,97079.19
2023-05-14T14:50:06.580Z,97084.75
2023-05-14T14:52:34.701Z,97074.13
2023-05-14T14:55:01.246Z,97077.91
2023-05-14T14:57:28.015Z,97081.28
2023-05-14T14:59:54.650Z,97070.13
2023-05-14T15:02:21.237Z,97072.81
2023-05-14T15:04:47.808Z,97068.25
2023-05-14T15:07:16.612Z,97069.63
2023-05-14T15:09:43.389Z,97061.09
2023-05-14T15:12:11.005Z,97062.50
2023-05-14T15:14:37.656Z,97072.75
2023-05-14T15:17:04.622Z,97092.00
2023-05-14T15:19:32.518Z,97119.44
2023-05-14T15:21:59.143Z,97135.81
2023-05-14T15:24:26.568Z,97132.72
2023-05-14T15:26:53.703Z,97145.38
2023-05-14T15:29:20.643Z,97141.63
2023-05-14T15:31:47.429Z,97155.97
2023-05-14T15:34:17.084Z,97167.06
2023-05-14T15:36:43.610Z,97181.50
2023-05-14T15:39:13.142Z,97187.03
2023-05-14T15:41:39.834Z,97191.47
2023-05-14T15:44:06.682Z,97193.56
2023-05-14T15:46:33.339Z,97199.94
2023-05-14T15:49:00.256Z,97207.75
2023-05-14T15:51:26.927Z,97208.19
2023-05-14T15:53:54.321Z,97201.81
2023-05-14T15:56:23.968Z,97204.09
2023-05-14T15:58:50.767Z,97218.97
2023-05-14T16:01:18.884Z,97211.94
2023-05-14T16:03:45.768Z,97222.34
2023-05-14T16:06:12.505Z,97218.63
2023-05-14T16:08:39.668Z,97222.25
2023-05-14T16:11:07.715Z,97233.69
2023-05-14T16:13:37.859Z,97233.03
2023-05-14T16:16:04.790Z,97235.78
2023-05-14T16:18:32.810Z,97214.56
2023-05-14T16:20:59.586Z,97210.81
2023-05-14T16:23:26.181Z,97209.06
2023-05-14T16:25:52.934Z,97206.78
2023-05-14T16:28:19.550Z,97207.97
2023-05-14T16:30:46.357Z,97205.09
2023-05-14T16:33:13.966Z,97221.50
2023-05-14T16:35:40.581Z,97223.59
2023-05-14T16:38:07.959Z,97226.22
2023-05-14T16:40:34.528Z,97232.94
2023-05-14T16:43:01.120Z,97227.44
2023-05-14T16:45:27.921Z,97224.44
2023-05-14T16:47:54.567Z,97224.44
2023-05-14T16:50:21.156Z,97224.34
2023-05-14T16:52:47.748Z,97223.59
2023-05-14T16:55:14.668Z,97233.56
2023-05-14T16:57:41.396Z,97227.22
2023-05-14T17:00:09.597Z,97228.09
2023-05-14T17:02:36.345Z,97229.09
2023-05-14T17:05:04.369Z,97219.63
2023-05-14T17:07:31.646Z,97224.56
2023-05-14T17:10:00.105Z,97227.97
2023-05-14T17:12:27.204Z,97232.56
2023-05-14T17:14:53.748Z,97236.09
2023-05-14T17:17:20.544Z,97237.97
2023-05-14T17:19:47.242Z,97238.72
2023-05-14T17:22:14.142Z,97241.25
2023-05-14T17:24:41.060Z,97232.88
2023-05-14T17:27:08.357Z,97238.19
2023-05-14T17:29:34.933Z,97245.53
2023-05-14T17:32:03.627Z,97239.72
2023-05-14T17:34:30.270Z,97241.50
2023-05-14T17:36:57.235Z,97235.75
2023-05-14T17:39:23.779Z,97233.34
2023-05-14T17:41:50.540Z,97237.97
2023-05-14T17:44:17.114Z,97230.06
2023-05-14T17:46:44.927Z,97230.28
2023-05-14T17:49:12.113Z,97228.97
2023-05-14T17:51:38.695Z,97229.75
2023-05-14T17:54:05.318Z,97221.06
2023-05-14T17:56:32.034Z,97211.59
2023-05-14T17:58:58.606Z,97210.25
2023-05-14T18:01:25.533Z,97216.66
2023-05-14T18:03:52.376Z,97209.50
2023-05-14T18:06:18.988Z,97213.03
2023-05-14T18:08:45.605Z,97216.41
2023-05-14T18:11:12.172Z,97212.03
2023-05-14T18:13:38.734Z,97210.28
2023-05-14T18:16:05.595Z,97200.50
2023-05-14T18:18:32.265Z,97209.59
2023-05-14T18:20:59.096Z,97205.75
2023-05-14T18:23:25.765Z,97203.91
2023-05-14T18:25:52.398Z,97207.09
2023-05-14T18:28:19.415Z,97211.38
2023-05-14T18:30:46.013Z,97208.53
2023-05-14T18:33:12.704Z,97207.31
2023-05-14T18:35:39.503Z,97208.06
2023-05-14T18:38:08.096Z,97220.28
2023-05-14T18:40:34.997Z,97220.34
2023-05-14T18:43:01.624Z,97220.34
2023-05-14T18:45:28.219Z,97226.72
2023-05-14T18:47:55.447Z,97219.06
2023-05-14T18:50:22.092Z,97219.34
2023-05-14T18:52:48.668Z,97221.66
2023-05-14T18:55:15.577Z,97220.66
2023-05-14T18:57:42.392Z,97212.84
2023-05-14T19:00:09.562Z,97216.63
2023-05-14T19:02:36.264Z,97221.97
2023-05-14T19:05:02.861Z,97229.34
2023-05-14T19:07:30.834Z,97231.44
2023-05-14T19:09:57.416Z,97231.06
2023-05-14T19:12:24.055Z,97230.22
2023-05-14T19:14:50.908Z,97236.69
2023-05-14T19:17:19.222Z,97239.25
2023-05-14T19:19:47.223Z,97241.56
2023-05-14T19:22:14.021Z,97248.44
2023-05-14T19:24:40.676Z,97252.72
2023-05-14T19:27:08.314Z,97245.34
2023-05-14T19:29:37.033Z,97235.66
2023-05-14T19:32:05.104Z,97241.00
2023-05-14T19:34:31.762Z,97242.81
2023-05-14T19:36:58.672Z,97249.41
2023-05-14T19:39:25.213Z,97245.72
2023-05-14T19:41:51.766Z,97243.31
2023-05-14T19:44:18.397Z,97241.88
2023-05-14T19:46:45.385Z,97239.88
2023-05-14T19:49:12.333Z,97242.88
2023-05-14T19:51:39.895Z,97240.91
2023-05-14T19:54:06.964Z,97241.41
2023-05-14T19:56:33.544Z,97236.31
2023-05-14T19:59:00.111Z,97234.56
2023-05-14T20:01:27.603Z,97233.81
2023-05-14T20:03:54.158Z,97236.94
2023-05-14T20:06:20.804Z,97235.41
2023-05-14T20:08:47.440Z,97243.97
2023-05-14T20:11:15.831Z,97246.38
2023-05-14T20:13:42.459Z,97243.28
2023-05-14T20:16:09.177Z,97241.06
2023-05-14T20:18:35.874Z,97244.31
2023-05-14T20:21:02.511Z,97239.25
2023-05-14T20:23:29.116Z,97242.22
2023-05-14T20:25:56.127Z,97242.91
2023-05-14T20:28:22.913Z,97236.06
2023-05-14T20:30:49.627Z,97233.66
2023-05-14T20:33:16.245Z,97235.22
2023-05-14T20:35:44.250Z,97239.22
2023-05-14T20:38:13.048Z,97243.84
2023-05-14T20:40:39.914Z,97241.88
2023-05-14T20:43:06.492Z,97240.34
2023-05-14T20:45:33.304Z,97239.16
2023-05-14T20:47:59.937Z,97237.59
2023-05-14T20:50:27.989Z,97241.53
2023-05-14T20:52:55.311Z,97246.16
2023-05-14T20:55:22.028Z,97244.63
2023-05-14T20:57:49.873Z,97241.47
2023-05-14T21:00:17.068Z,97233.50
2023-05-14T21:02:43.835Z,97236.59
2023-05-14T21:05:10.624Z,97231.13
2023-05-14T21:07:40.094Z,97228.38
2023-05-14T21:10:08.730Z,97219.78
2023-05-14T21:12:35.553Z,97219.47
2023-05-14T21:15:02.192Z,97204.38
2023-05-14T21:17:28.951Z,97211.06
2023-05-14T21:19:55.556Z,97218.38
2023-05-14T21:22:22.528Z,97217.13
2023-05-14T21:24:50.863Z,97215.31
2023-05-14T21:27:17.656Z,97214.25
2023-05-14T21:29:46.565Z,97214.25
2023-05-14T21:32:13.339Z,97225.84
2023-05-14T21:34:40.257Z,97221.03
2023-05-14T21:37:06.914Z,97222.53
2023-05-14T21:39:33.544Z,97225.25
2023-05-14T21:42:00.137Z,97232.28
2023-05-14T21:44:26.728Z,97222.38
2023-05-14T21:46:53.293Z,97225.94
2023-05-14T21:49:19.875Z,97220.56
2023-05-14T21:51:46.816Z,97227.66
2023-05-14T21:54:14.226Z,97220.03
2023-05-14T21:56:40.938Z,97221.84
2023-05-14T21:59:07.844Z,97230.34
2023-05-14T22:01:42.182Z,97231.41
2023-05-14T22:04:17.732Z,97227.34
2023-05-14T22:06:44.811Z,97224.25
2023-05-14T22:09:11.623Z,97220.47
2023-05-14T22:11:38.234Z,97220.97
2023-05-14T22:14:05.038Z,97207.13
2023-05-14T22:16:32.717Z,97213.34
2023-05-14T22:18:59.441Z,97202.66
2023-05-14T22:21:27.621Z,97199.31
2023-05-14T22:23:54.204Z,97208.25
2023-05-14T22:26:21.958Z,97203.25
2023-05-14T22:28:49.838Z,97195.31
2023-05-14T22:31:16.467Z,97205.09
2023-05-14T22:33:43.050Z,97199.19
2023-05-14T22:36:10.559Z,97201.81
2023-05-14T22:38:38.959Z,97199.09
2023-05-14T22:41:05.504Z,97196.09
2023-05-14T22:43:32.127Z,97190.19
2023-05-14T22:45:58.720Z,97191.25
2023-05-14T22:48:25.361Z,97181.44
2023-05-14T22:50:52.101Z,97191.25
2023-05-14T22:53:18.745Z,97181.81
2023-05-14T22:55:45.345Z,97188.13
2023-05-14T22:58:12.180Z,97181.97
2023-05-14T23:00:38.973Z,97179.06
2023-05-14T23:03:05.635Z,97189.00
2023-05-14T23:05:32.330Z,97183.59
2023-05-14T23:07:59.163Z,97186.94
2023-05-14T23:10:25.819Z,97185.91
2023-05-14T23:12:52.448Z,97182.97
2023-05-14T23:15:19.098Z,97178.38
2023-05-14T23:17:45.728Z,97179.13
2023-05-14T23:20:15.319Z,97175.09
2023-05-14T23:22:42.139Z,97177.84
2023-05-14T23:25:09.339Z,97173.91
2023-05-14T23:27:35.974Z,97172.47
2023-05-14T23:30:03.622Z,97171.03
2023-05-14T23:32:30.314Z,97166.06
2023-05-14T23:34:57.214Z,97160.59
2023-05-14T23:37:23.976Z,97148.94
2023-05-14T23:39:50.947Z,97149.78
2023-05-14T23:42:17.578Z,97138.81
2023-05-14T23:44:44.124Z,97145.69
2023-05-14T23:47:10.849Z,97136.09
2023-05-14T23:49:37.637Z,97134.47
2023-05-14T23:52:04.461Z,97134.03
2023-05-14T23:54:31.049Z,97137.28
2023-05-14T23:59:40.278Z,97134.56
